Time;durP1;ratioP1;P1;durP2;ratioP2;P2;SDS_P1;SDS_P2;PMS_P1;PMS_P2;Temp;Humidity;BMP_temperature;BMP_pressure;BME280_temperature;BME280_humidity;BME280_pressure;Samples;Min_cycle;Max_cycle;Signal;HPM_P1;HPM_P2
2024/03/15 00:01:45;;;;;;;56.30;26.87;;;;;;;3.75;91.86;100631.50;123877;1099;104303;-79
2024/03/15 00:04:18;;;;;;;59.10;27.30;;;;;;;3.75;92.51;100636.70;123876;1099;104345;-80
2024/03/15 00:06:49;;;;;;;63.40;28.07;;;;;;;3.74;91.66;100623.62;123705;1098;104252;-79
2024/03/15 00:09:20;;;;;;;57.40;25.65;;;;;;;3.71;91.69;100623.42;123656;1098;105627;-79
2024/03/15 00:11:51;;;;;;;62.60;28.40;;;;;;;3.69;91.97;100631.11;123773;1099;104300;-79
2024/03/15 00:14:23;;;;;;;60.00;27.47;;;;;;;3.68;92.46;100626.73;123433;1099;104696;-79
2024/03/15 00:16:54;;;;;;;54.60;26.20;;;;;;;3.67;92.03;100621.45;123780;1099;104271;-79
2024/03/15 00:19:25;;;;;;;60.40;27.47;;;;;;;3.63;92.21;100627.22;123662;1099;104309;-79
2024/03/15 00:21:58;;;;;;;53.45;25.95;;;;;;;3.63;92.04;100616.84;123741;1099;104271;-79
2024/03/15 00:24:29;;;;;;;47.07;23.07;;;;;;;3.64;92.38;100627.32;123726;1099;104341;-79
2024/03/15 00:27:01;;;;;;;49.57;25.27;;;;;;;3.64;91.93;100629.91;123696;1099;104325;-80
2024/03/15 00:29:32;;;;;;;50.13;23.50;;;;;;;3.60;92.27;100622.75;123802;1099;105607;-80
2024/03/15 00:32:05;;;;;;;50.57;24.47;;;;;;;3.57;92.78;100613.05;123767;1099;104257;-79
2024/03/15 00:34:37;;;;;;;59.10;25.97;;;;;;;3.59;92.11;100620.94;123805;1099;104210;-80
2024/03/15 00:37:08;;;;;;;51.63;24.20;;;;;;;3.59;92.65;100619.23;123937;1099;104377;-79
2024/03/15 00:39:39;;;;;;;52.63;24.67;;;;;;;3.58;92.17;100619.13;123880;1099;104759;-79
2024/03/15 00:42:11;;;;;;;52.60;25.45;;;;;;;3.57;91.82;100615.66;123917;1099;104274;-79
2024/03/15 00:44:42;;;;;;;50.13;23.40;;;;;;;3.56;92.36;100618.14;124017;1099;104251;-79
2024/03/15 00:47:14;;;;;;;51.63;25.50;;;;;;;3.55;92.39;100619.85;123929;1099;104178;-79
2024/03/15 00:49:45;;;;;;;59.00;26.50;;;;;;;3.54;92.24;100607.66;123820;1099;104354;-80
2024/03/15 00:52:17;;;;;;;51.43;24.77;;;;;;;3.53;92.71;100613.64;123870;1099;104332;-79
2024/03/15 00:54:49;;;;;;;47.43;24.53;;;;;;;3.54;92.45;100612.86;123966;1099;104245;-79
2024/03/15 00:57:20;;;;;;;53.80;25.30;;;;;;;3.56;92.98;100608.66;123873;1099;104299;-79
2024/03/15 00:59:52;;;;;;;53.17;26.07;;;;;;;3.58;93.06;100608.75;123756;1099;104281;-80
2024/03/15 01:02:23;;;;;;;52.90;25.40;;;;;;;3.59;93.08;100613.16;123770;1099;104313;-79
2024/03/15 01:04:55;;;;;;;57.87;25.50;;;;;;;3.60;92.52;100609.77;123821;1098;104367;-79
2024/03/15 01:07:26;;;;;;;56.23;26.23;;;;;;;3.60;92.86;100610.66;123681;1099;104312;-79
2024/03/15 01:09:57;;;;;;;53.63;25.93;;;;;;;3.61;92.69;100601.17;123611;1099;104255;-79
2024/03/15 01:12:28;;;;;;;55.47;27.33;;;;;;;3.63;92.83;100598.67;123758;1099;104252;-79
2024/03/15 01:14:59;;;;;;;52.77;25.50;;;;;;;3.63;92.33;100598.67;123729;1098;104360;-79
2024/03/15 01:17:31;;;;;;;52.45;25.75;;;;;;;3.63;92.76;100602.19;123680;1099;104476;-79
2024/03/15 01:20:02;;;;;;;53.30;24.63;;;;;;;3.64;93.19;100608.27;123768;1099;104274;-79
2024/03/15 01:22:33;;;;;;;51.40;26.37;;;;;;;3.62;92.89;100605.58;123888;1099;104312;-80
2024/03/15 01:25:07;;;;;;;54.83;25.37;;;;;;;3.64;93.05;100600.48;123916;1099;104712;-79
2024/03/15 01:27:38;;;;;;;55.77;26.23;;;;;;;3.62;92.76;100602.98;123751;1098;104267;-78
2024/03/15 01:30:11;;;;;;;53.60;26.27;;;;;;;3.60;92.60;100607.19;123770;1099;104370;-79
2024/03/15 01:32:44;;;;;;;54.73;25.40;;;;;;;3.60;92.96;100609.77;124056;1099;104344;-79
2024/03/15 01:35:16;;;;;;;51.77;25.47;;;;;;;3.58;92.66;100613.94;123851;1099;104248;-79
2024/03/15 01:37:47;;;;;;;55.37;26.03;;;;;;;3.58;92.97;100609.67;123935;1099;104499;-79
2024/03/15 01:40:21;;;;;;;51.10;25.70;;;;;;;3.53;92.57;100611.05;123710;1098;104271;-79
2024/03/15 01:42:52;;;;;;;53.90;27.07;;;;;;;3.51;92.81;100610.06;123574;1099;104322;-79
2024/03/15 01:45:24;;;;;;;56.10;25.83;;;;;;;3.45;92.55;100609.66;123604;1099;104360;-79
2024/03/15 01:47:56;;;;;;;53.00;25.50;;;;;;;3.44;92.86;100609.55;123865;1099;104245;-79
2024/03/15 01:50:28;;;;;;;49.47;23.97;;;;;;;3.43;92.37;100608.66;123891;1099;104185;-80
2024/03/15 01:53:01;;;;;;;55.17;26.03;;;;;;;3.41;93.01;100605.97;123607;1099;104320;-79
2024/03/15 01:55:33;;;;;;;48.13;24.57;;;;;;;3.40;92.99;100600.69;123841;1098;104345;-78
2024/03/15 01:58:08;;;;;;;49.63;25.07;;;;;;;3.41;92.67;100607.64;123828;1099;104159;-79
2024/03/15 02:00:40;;;;;;;;;;;;;;;3.38;92.85;100602.25;123780;1099;104619;-79
2024/03/15 02:03:13;;;;;;;52.33;24.25;;;;;;;3.38;92.86;100604.84;123788;1099;104280;-80
2024/03/15 02:05:45;;;;;;;49.50;23.10;;;;;;;3.37;92.69;100606.55;123865;1099;104804;-80
2024/03/15 02:08:20;;;;;;;53.70;26.70;;;;;;;3.37;92.83;100613.45;123862;1099;104373;-79
2024/03/15 02:10:51;;;;;;;48.83;23.80;;;;;;;3.37;93.28;100618.64;123741;1099;104703;-80
2024/03/15 02:13:22;;;;;;;52.30;25.20;;;;;;;3.37;92.59;100613.45;123566;1099;104284;-79
2024/03/15 02:15:53;;;;;;;52.13;25.33;;;;;;;3.36;92.71;100612.53;123732;1099;104251;-79
2024/03/15 02:18:25;;;;;;;52.40;25.07;;;;;;;3.36;92.67;100614.23;123751;1099;104338;-79
2024/03/15 02:20:56;;;;;;;52.53;25.23;;;;;;;3.36;93.11;100614.23;123742;1098;104337;-80
2024/03/15 02:23:27;;;;;;;47.83;25.50;;;;;;;3.34;92.17;100615.84;123605;1099;104274;-80
2024/03/15 02:25:58;;;;;;;49.83;24.10;;;;;;;3.32;92.57;100610.55;123513;1099;104354;-79
2024/03/15 02:28:30;;;;;;;53.80;25.80;;;;;;;3.34;92.92;100613.25;123816;1099;104392;-80
2024/03/15 02:31:01;;;;;;;49.43;24.47;;;;;;;3.34;92.66;100613.25;123723;1099;104378;-79
2024/03/15 02:33:34;;;;;;;53.03;26.67;;;;;;;3.34;92.92;100614.13;123650;1099;104270;-79
2024/03/15 02:36:08;;;;;;;54.10;26.87;;;;;;;3.38;92.42;100617.81;123772;1099;104345;-79
2024/03/15 02:38:40;;;;;;;50.43;24.70;;;;;;;3.37;93.21;100616.93;123491;1099;104274;-80
2024/03/15 02:41:13;;;;;;;57.80;28.17;;;;;;;3.39;93.59;100622.22;123759;1099;105466;-79
2024/03/15 02:43:45;;;;;;;51.50;25.37;;;;;;;3.39;93.13;100617.03;123747;1099;104354;-79
2024/03/15 02:46:18;;;;;;;56.37;27.53;;;;;;;3.39;93.21;100614.44;123749;1099;104344;-79
2024/03/15 02:48:49;;;;;;;56.23;27.80;;;;;;;3.39;93.15;100623.11;123766;1099;104338;-79
2024/03/15 02:51:24;;;;;;;52.93;26.67;;;;;;;3.38;93.26;100623.92;123448;1099;104255;-79
2024/03/15 02:53:55;;;;;;;51.30;25.80;;;;;;;3.40;93.21;100618.84;123746;1099;104386;-79
2024/03/15 02:56:27;;;;;;;53.57;26.20;;;;;;;3.41;93.30;100621.53;123709;1099;104315;-79
2024/03/15 02:58:58;;;;;;;55.13;27.40;;;;;;;3.41;93.18;100620.61;123684;1099;104319;-79
2024/03/15 03:01:29;;;;;;;54.07;25.90;;;;;;;3.45;93.80;100625.22;123837;1099;104249;-79
2024/03/15 03:04:00;;;;;;;52.97;26.37;;;;;;;3.47;93.29;100628.80;123449;1099;104410;-79
2024/03/15 03:06:32;;;;;;;56.23;27.40;;;;;;;3.46;92.82;100627.03;123703;1098;104267;-79
2024/03/15 03:09:03;;;;;;;54.03;26.93;;;;;;;3.43;93.46;100632.02;123840;1099;104316;-79
2024/03/15 03:11:34;;;;;;;53.70;26.97;;;;;;;3.41;93.24;100633.59;123737;1098;104245;-79
2024/03/15 03:14:05;;;;;;;54.77;26.50;;;;;;;3.39;93.06;100630.89;123742;1099;104251;-79
2024/03/15 03:16:37;;;;;;;58.10;26.67;;;;;;;3.37;93.39;100627.30;123888;1099;104271;-79
2024/03/15 03:19:08;;;;;;;55.03;26.47;;;;;;;3.36;93.02;100628.09;123790;1099;104270;-79
2024/03/15 03:21:39;;;;;;;54.57;25.83;;;;;;;3.37;93.66;100626.42;123707;1099;104325;-79
2024/03/15 03:24:10;;;;;;;54.53;26.37;;;;;;;3.32;93.79;100627.78;123673;1099;104348;-79
2024/03/15 03:26:42;;;;;;;52.70;27.67;;;;;;;3.30;93.54;100629.39;123801;1099;104316;-79
2024/03/15 03:29:13;;;;;;;54.50;27.27;;;;;;;3.30;93.63;100626.80;123688;1099;104249;-79
2024/03/15 03:31:44;;;;;;;57.53;26.67;;;;;;;3.29;93.85;100637.95;123920;1099;105459;-79
2024/03/15 03:34:15;;;;;;;57.87;29.03;;;;;;;3.26;93.19;100645.53;123765;1099;104377;-79
2024/03/15 03:36:48;;;;;;;57.40;28.67;;;;;;;3.23;93.79;100634.16;123450;1099;104402;-79
2024/03/15 03:39:20;;;;;;;57.07;27.27;;;;;;;3.21;94.09;100638.36;123310;1100;104647;-79
2024/03/15 03:41:52;;;;;;;58.15;28.05;;;;;;;3.23;94.17;100634.16;123747;1099;104347;-79
2024/03/15 03:44:26;;;;;;;58.20;27.67;;;;;;;3.21;94.19;100632.25;123735;1099;104242;-79
2024/03/15 03:46:57;;;;;;;63.97;30.37;;;;;;;3.24;93.81;100641.16;123833;1099;104319;-80
2024/03/15 03:49:29;;;;;;;57.23;29.10;;;;;;;3.23;94.57;100638.46;123672;1099;104268;-79
2024/03/15 03:52:00;;;;;;;62.77;29.23;;;;;;;3.22;93.74;100636.66;123687;1099;104358;-79
2024/03/15 03:54:31;;;;;;;62.27;30.00;;;;;;;3.20;93.75;100626.17;123539;1099;104354;-79
2024/03/15 03:57:03;;;;;;;60.47;29.73;;;;;;;3.20;93.76;100633.95;123959;1099;104242;-80
2024/03/15 03:59:34;;;;;;;58.13;27.60;;;;;;;3.18;94.59;100637.23;123871;1099;104300;-79
2024/03/15 04:02:05;;;;;;;54.00;27.83;;;;;;;3.17;93.76;100638.05;124039;1099;104269;-79
2024/03/15 04:04:36;;;;;;;62.80;30.85;;;;;;;3.17;94.55;100643.23;123814;1098;104226;-79
2024/03/15 04:07:09;;;;;;;60.40;28.83;;;;;;;3.16;94.29;100644.02;123717;1099;104200;-79
2024/03/15 04:09:40;;;;;;;61.60;29.23;;;;;;;3.14;94.46;100649.10;123697;1099;104328;-79
2024/03/15 04:12:12;;;;;;;58.97;28.13;;;;;;;3.15;94.86;100655.21;123831;1099;104438;-79
2024/03/15 04:14:44;;;;;;;59.87;30.23;;;;;;;3.13;93.88;100655.11;123720;1099;107115;-79
2024/03/15 04:17:15;;;;;;;60.20;29.50;;;;;;;3.13;94.49;100652.52;123742;1098;104386;-79
2024/03/15 04:19:50;;;;;;;60.75;29.60;;;;;;;3.14;94.38;100659.47;123725;1099;104272;-79
2024/03/15 04:22:21;;;;;;;;;;;;;;;3.15;94.72;100655.21;123735;1098;104254;-78
2024/03/15 04:24:52;;;;;;;60.30;30.13;;;;;;;3.13;94.21;100662.88;123827;1099;104172;-80
2024/03/15 04:27:23;;;;;;;61.73;29.37;;;;;;;3.15;94.30;100650.91;123901;1099;104463;-79
2024/03/15 04:29:55;;;;;;;60.90;29.35;;;;;;;3.16;94.51;100650.09;123796;1099;104344;-79
2024/03/15 04:32:27;;;;;;;59.20;30.30;;;;;;;3.18;94.21;100655.38;123844;1099;104262;-79
2024/03/15 04:34:59;;;;;;;66.05;31.15;;;;;;;3.15;94.83;100650.91;123506;1099;104323;-79
2024/03/15 04:37:30;;;;;;;63.85;30.60;;;;;;;3.17;95.00;100658.80;123791;1098;104290;-79
2024/03/15 04:40:02;;;;;;;62.57;29.77;;;;;;;3.19;94.64;100657.19;123695;1099;104293;-79
2024/03/15 04:42:34;;;;;;;65.73;31.03;;;;;;;3.19;94.57;100660.67;123823;1099;104341;-79
2024/03/15 04:45:09;;;;;;;59.37;29.37;;;;;;;3.20;95.06;100661.59;123769;1099;104300;-79
2024/03/15 04:47:42;;;;;;;65.63;30.23;;;;;;;3.20;94.92;100665.08;123835;1099;104709;-79
2024/03/15 04:50:15;;;;;;;62.63;30.03;;;;;;;3.21;94.40;100663.38;123834;1099;104242;-79
2024/03/15 04:52:47;;;;;;;68.30;32.30;;;;;;;3.22;94.88;100668.66;123597;1099;104389;-80
2024/03/15 04:55:20;;;;;;;61.80;31.03;;;;;;;3.22;95.32;100663.47;123896;1099;104240;-79
2024/03/15 04:57:51;;;;;;;65.50;31.30;;;;;;;3.21;94.85;100668.56;123907;1099;104275;-79
2024/03/15 05:00:22;;;;;;;61.43;29.40;;;;;;;3.25;95.61;100673.17;123820;1099;104242;-79
2024/03/15 05:02:53;;;;;;;66.57;30.17;;;;;;;3.26;94.95;100668.87;123876;1099;104427;-80
2024/03/15 05:05:25;;;;;;;66.60;31.63;;;;;;;3.27;94.90;100670.68;123769;1099;104791;-79
2024/03/15 05:07:56;;;;;;;69.27;31.17;;;;;;;3.26;95.22;100677.58;123535;1099;104303;-79
2024/03/15 05:10:27;;;;;;;66.17;31.50;;;;;;;3.30;95.60;100676.08;123900;1099;104277;-79
2024/03/15 05:12:58;;;;;;;69.37;33.47;;;;;;;3.32;95.17;100670.20;123871;1099;104395;-79
2024/03/15 05:15:30;;;;;;;68.40;32.73;;;;;;;3.31;94.53;100673.59;123836;1099;104248;-79
2024/03/15 05:18:01;;;;;;;66.20;31.33;;;;;;;3.34;95.98;100671.20;123982;1099;104336;-79
2024/03/15 05:20:33;;;;;;;68.03;31.53;;;;;;;3.38;94.92;100673.22;124123;1098;104300;-79
2024/03/15 05:23:07;;;;;;;65.20;30.87;;;;;;;3.36;95.52;100674.78;123927;1099;104342;-79
2024/03/15 05:25:38;;;;;;;68.50;30.40;;;;;;;3.39;95.45;100672.39;123933;1099;104245;-79
2024/03/15 05:28:09;;;;;;;68.13;31.57;;;;;;;3.42;95.93;100672.60;124208;1099;104313;-80
2024/03/15 05:30:43;;;;;;;73.50;33.23;;;;;;;3.45;95.91;100674.52;124143;1099;104714;-79
2024/03/15 05:33:15;;;;;;;71.87;34.13;;;;;;;3.46;96.75;100673.73;124124;1099;104162;-79
2024/03/15 05:35:46;;;;;;;68.20;31.57;;;;;;;3.45;95.39;100682.30;124131;1099;104673;-79
2024/03/15 05:38:17;;;;;;;68.43;32.83;;;;;;;3.42;95.98;100672.60;124036;1099;104344;-79
2024/03/15 05:40:48;;;;;;;69.73;34.53;;;;;;;3.40;95.43;100676.80;124151;1099;104288;-79
2024/03/15 05:43:20;;;;;;;72.37;31.90;;;;;;;3.38;95.97;100687.86;124272;1099;104345;-79
2024/03/15 05:45:51;;;;;;;70.90;31.70;;;;;;;3.38;96.15;100688.78;124119;1099;104322;-79
2024/03/15 05:48:23;;;;;;;64.97;31.67;;;;;;;3.36;96.32;100687.75;124131;1099;104290;-78
2024/03/15 05:50:57;;;;;;;70.13;33.07;;;;;;;3.35;95.43;100682.45;124222;1099;104249;-78
2024/03/15 05:53:29;;;;;;;70.53;32.37;;;;;;;3.36;96.33;100686.86;124151;1099;104271;-79
2024/03/15 05:56:01;;;;;;;75.73;34.70;;;;;;;3.37;96.25;100699.05;124129;1099;104450;-77
2024/03/15 05:58:32;;;;;;;73.80;34.93;;;;;;;3.35;97.12;100696.35;124172;1099;104166;-79
2024/03/15 06:01:04;;;;;;;71.43;35.10;;;;;;;3.34;96.75;100688.47;124328;1098;104267;-78
2024/03/15 06:03:35;;;;;;;72.70;34.00;;;;;;;3.36;95.97;100684.27;124170;1099;104242;-79
2024/03/15 06:06:08;;;;;;;72.13;34.57;;;;;;;3.40;96.89;100694.95;124220;1099;104645;-79
2024/03/15 06:08:42;;;;;;;75.78;34.00;;;;;;;3.41;96.48;100693.25;124426;1098;104242;-79
2024/03/15 06:11:13;;;;;;;71.03;35.10;;;;;;;3.44;96.53;100692.57;124279;1099;104296;-77
2024/03/15 06:13:45;;;;;;;73.17;33.63;;;;;;;3.49;97.51;100689.50;124416;1099;104347;-78
2024/03/15 06:16:17;;;;;;;78.40;35.83;;;;;;;3.53;96.90;100698.37;124313;1099;104242;-77
2024/03/15 06:18:48;;;;;;;74.70;35.60;;;;;;;3.54;97.09;100689.81;124669;1099;104198;-77
2024/03/15 06:21:23;;;;;;;75.23;34.90;;;;;;;3.57;97.29;100692.61;124486;1099;104307;-78
2024/03/15 06:23:54;;;;;;;75.93;35.43;;;;;;;3.57;97.21;100698.69;124825;1099;104223;-77
2024/03/15 06:26:26;;;;;;;76.40;35.57;;;;;;;3.58;97.13;100700.50;124722;1099;104268;-77
2024/03/15 06:28:59;;;;;;;75.53;34.77;;;;;;;3.60;97.44;100705.79;124420;1098;104179;-78
2024/03/15 06:31:31;;;;;;;73.83;33.70;;;;;;;3.62;96.96;100711.08;124558;1099;104194;-77
2024/03/15 06:34:07;;;;;;;75.70;34.47;;;;;;;3.66;96.89;100707.87;124583;1099;104333;-76
2024/03/15 06:36:44;;;;;;;81.67;36.67;;;;;;;3.68;97.51;100703.70;124551;1099;104237;-77
2024/03/15 06:39:24;;;;;;;78.23;36.40;;;;;;;3.74;97.80;100701.48;124641;1099;104286;-78
2024/03/15 06:41:57;;;;;;;75.77;35.90;;;;;;;3.79;97.87;100700.11;125081;1099;102053;-77
2024/03/15 06:44:45;;;;;;;78.10;35.80;;;;;;;3.91;97.71;100700.00;124850;1099;104245;-77
2024/03/15 06:47:18;;;;;;;76.00;39.30;;;;;;;4.05;98.18;100703.50;125015;1099;104354;-77
2024/03/15 06:49:55;;;;;;;77.80;36.07;;;;;;;4.14;97.89;100710.22;125445;1099;104251;-78
2024/03/15 06:52:35;;;;;;;76.43;36.00;;;;;;;4.22;98.08;100702.88;125055;1099;104254;-78
2024/03/15 06:55:10;;;;;;;77.27;36.53;;;;;;;4.22;98.00;100713.28;124957;1099;104231;-78
2024/03/15 06:57:43;;;;;;;74.90;36.63;;;;;;;4.23;98.07;100712.48;126884;1098;102088;-78
2024/03/15 07:00:17;;;;;;;73.27;35.70;;;;;;;4.29;98.25;100714.59;126890;1098;102087;-78
2024/03/15 07:02:50;;;;;;;76.72;35.23;;;;;;;4.32;98.68;100722.59;126990;1099;102043;-78
2024/03/15 07:05:23;;;;;;;76.67;36.28;;;;;;;4.26;98.49;100707.48;126122;1099;102183;-78
2024/03/15 07:07:54;;;;;;;80.13;35.97;;;;;;;4.25;98.58;100715.19;126005;1099;101910;-78
2024/03/15 07:10:27;;;;;;;73.67;33.77;;;;;;;4.23;98.38;100712.48;125681;1098;102728;-78
2024/03/15 07:13:01;;;;;;;74.50;35.03;;;;;;;4.22;98.08;100722.78;126015;1099;102726;-78
2024/03/15 07:15:33;;;;;;;69.67;32.53;;;;;;;4.19;97.57;100726.09;124815;1099;104224;-78
2024/03/15 07:18:20;;;;;;;66.20;31.63;;;;;;;4.20;97.89;100724.39;124502;1098;105672;-78
2024/03/15 07:20:56;;;;;;;74.67;32.70;;;;;;;4.21;98.50;100724.48;124952;1099;104281;-78
2024/03/15 07:23:27;;;;;;;65.93;30.80;;;;;;;4.22;98.38;100723.66;124595;1099;104267;-78
2024/03/15 07:26:02;;;;;;;69.92;32.35;;;;;;;4.30;98.85;100729.36;124536;1099;102946;-78
2024/03/15 07:28:35;;;;;;;68.87;32.30;;;;;;;4.37;98.58;100726.37;124463;1098;104223;-78
2024/03/15 07:31:08;;;;;;;67.63;33.83;;;;;;;4.42;98.67;100731.86;125121;1099;103301;-77
2024/03/15 07:34:09;;;;;;;70.93;33.50;;;;;;;4.42;98.50;100727.55;125355;1099;104181;-78
2024/03/15 07:36:44;;;;;;;69.70;34.30;;;;;;;4.42;98.78;100724.95;124932;1098;104297;-78
2024/03/15 07:39:16;;;;;;;69.33;32.33;;;;;;;4.46;98.64;100724.36;124565;1099;104382;-77
2024/03/15 07:41:48;;;;;;;67.40;32.15;;;;;;;4.50;98.86;100725.44;124911;1099;105600;-78
2024/03/15 07:44:19;;;;;;;72.63;33.93;;;;;;;4.50;98.72;100726.36;124967;1098;104252;-77
2024/03/15 07:46:50;;;;;;;65.60;32.13;;;;;;;4.56;99.35;100731.03;124721;1099;102269;-77
2024/03/15 07:49:22;;;;;;;66.80;31.50;;;;;;;4.62;99.16;100726.22;124857;1099;104422;-77
2024/03/15 07:51:53;;;;;;;65.97;32.10;;;;;;;4.66;99.13;100728.22;124955;1099;102181;-77
2024/03/15 07:54:27;;;;;;;63.58;31.97;;;;;;;4.72;98.64;100727.72;125071;1099;104312;-78
2024/03/15 07:57:03;;;;;;;63.87;30.70;;;;;;;4.68;98.83;100725.72;125088;1099;101894;-77
2024/03/15 07:59:34;;;;;;;64.73;30.13;;;;;;;4.66;98.82;100723.02;124685;1099;104242;-77
2024/03/15 08:02:15;;;;;;;62.93;29.53;;;;;;;4.68;99.45;100721.41;124986;1099;104203;-77
2024/03/15 08:05:06;;;;;;;58.43;29.00;;;;;;;4.75;99.11;100716.59;124466;1099;102806;-78
2024/03/15 08:07:43;;;;;;;59.97;29.00;;;;;;;4.76;98.63;100721.00;125080;1099;103581;-78
2024/03/15 08:10:16;;;;;;;57.43;27.83;;;;;;;4.77;99.30;100713.30;125245;1098;103336;-78
2024/03/15 08:12:48;;;;;;;56.33;27.00;;;;;;;4.78;98.63;100711.58;125157;1099;101994;-77
2024/03/15 08:15:23;;;;;;;52.08;26.55;;;;;;;4.75;98.83;100714.87;125109;1099;102391;-77
2024/03/15 08:17:54;;;;;;;55.13;26.23;;;;;;;4.77;99.18;100714.97;125096;1099;103465;-77
2024/03/15 08:20:26;;;;;;;53.90;25.73;;;;;;;4.80;99.42;100720.37;125013;1099;104697;-78
2024/03/15 08:22:59;;;;;;;57.70;26.97;;;;;;;4.87;99.36;100722.55;125203;1098;103055;-77
2024/03/15 08:25:31;;;;;;;52.73;25.82;;;;;;;4.88;99.27;100720.84;124974;1099;104314;-78
2024/03/15 08:28:03;;;;;;;49.67;25.17;;;;;;;4.92;98.95;100721.13;125210;1099;104319;-77
2024/03/15 08:30:39;;;;;;;51.07;25.20;;;;;;;5.00;99.49;100726.80;125098;1098;104251;-78
2024/03/15 08:33:11;;;;;;;52.87;25.50;;;;;;;5.04;99.11;100713.20;124969;1098;103272;-77
2024/03/15 08:35:44;;;;;;;56.97;26.93;;;;;;;5.07;99.77;100717.70;125572;1098;104248;-78
2024/03/15 08:38:16;;;;;;;55.33;25.50;;;;;;;5.06;99.89;100723.70;125254;1099;103027;-78
2024/03/15 08:40:57;;;;;;;55.77;26.83;;;;;;;5.07;99.29;100725.50;124746;1099;104102;-78
2024/03/15 08:43:30;;;;;;;59.00;28.00;;;;;;;5.09;99.40;100724.77;125293;1099;104060;-78
2024/03/15 08:46:04;;;;;;;58.07;27.60;;;;;;;5.12;99.44;100724.95;125292;1099;102889;-78
2024/03/15 08:48:36;;;;;;;60.38;28.70;;;;;;;5.16;99.66;100721.75;124979;1098;103563;-78
2024/03/15 08:51:13;;;;;;;58.70;27.90;;;;;;;5.18;99.65;100716.64;125263;1099;103897;-78
2024/03/15 08:53:49;;;;;;;54.83;26.60;;;;;;;5.20;99.42;100718.55;125177;1099;103727;-78
2024/03/15 08:56:20;;;;;;;;;;;;;;;5.22;99.70;100721.23;125170;1099;102874;-78
2024/03/15 08:58:52;;;;;;;57.13;26.53;;;;;;;5.24;99.71;100719.62;125284;1099;102676;-78
2024/03/15 09:01:32;;;;;;;63.70;27.27;;;;;;;5.23;99.56;100720.41;125200;1098;103431;-78
2024/03/15 09:04:05;;;;;;;59.27;26.77;;;;;;;5.23;99.71;100728.22;125313;1098;103684;-78
2024/03/15 09:06:37;;;;;;;54.40;26.70;;;;;;;5.22;100.00;100716.03;125264;1098;104304;-79
2024/03/15 09:09:11;;;;;;;59.80;28.10;;;;;;;5.21;99.48;100714.23;125337;1098;103760;-78
2024/03/15 09:11:43;;;;;;;58.90;27.65;;;;;;;5.24;99.93;100713.53;125282;1099;103272;-78
2024/03/15 09:14:18;;;;;;;57.40;25.83;;;;;;;5.27;100.00;100714.59;125339;1098;102705;-78
2024/03/15 09:16:51;;;;;;;58.00;26.67;;;;;;;5.31;99.91;100718.27;125137;1099;102973;-78
2024/03/15 09:19:22;;;;;;;62.27;27.27;;;;;;;5.34;100.00;100716.74;124983;1099;103680;-78
2024/03/15 09:21:55;;;;;;;64.77;30.27;;;;;;;5.34;100.00;100716.74;125160;1099;104173;-77
2024/03/15 09:24:26;;;;;;;63.80;27.87;;;;;;;5.37;99.96;100722.13;125014;1099;104225;-78
2024/03/15 09:26:58;;;;;;;58.30;27.23;;;;;;;5.36;100.00;100720.36;124717;1099;104352;-77
2024/03/15 09:29:30;;;;;;;63.87;27.73;;;;;;;5.37;100.00;100722.13;125160;1099;103509;-78
2024/03/15 09:32:03;;;;;;;61.50;27.90;;;;;;;5.39;100.00;100727.43;125120;1099;102316;-77
2024/03/15 09:34:35;;;;;;;61.00;28.87;;;;;;;5.39;100.00;100725.75;124927;1099;104188;-77
2024/03/15 09:37:12;;;;;;;61.60;30.27;;;;;;;5.39;100.00;100720.55;124996;1099;101974;-77
2024/03/15 09:39:44;;;;;;;63.03;29.00;;;;;;;5.42;100.00;100718.92;124756;1099;104251;-77
2024/03/15 09:42:20;;;;;;;61.17;27.43;;;;;;;5.43;100.00;100724.22;124792;1099;103061;-78
2024/03/15 09:44:58;;;;;;;59.73;27.67;;;;;;;5.46;100.00;100720.91;125056;1098;103493;-78
2024/03/15 09:47:30;;;;;;;61.43;27.63;;;;;;;5.48;100.00;100725.37;124601;1099;103064;-78
2024/03/15 09:50:04;;;;;;;59.07;28.27;;;;;;;5.47;100.00;100728.81;124864;1099;104159;-78
2024/03/15 09:52:37;;;;;;;64.80;28.87;;;;;;;5.48;100.00;100727.98;124900;1099;102871;-78
2024/03/15 09:55:16;;;;;;;62.83;28.13;;;;;;;5.50;100.00;100731.59;125097;1098;104227;-77
2024/03/15 09:57:49;;;;;;;63.63;28.90;;;;;;;5.54;100.00;100717.05;125004;1099;104226;-77
2024/03/15 10:00:30;;;;;;;60.05;29.30;;;;;;;5.62;100.00;100720.99;124998;1098;104510;-77
2024/03/15 10:03:01;;;;;;;66.10;30.07;;;;;;;5.67;100.00;100721.27;125021;1099;104165;-78
2024/03/15 10:05:33;;;;;;;64.37;29.47;;;;;;;5.68;100.00;100723.96;124801;1099;104264;-77
2024/03/15 10:08:08;;;;;;;63.23;29.33;;;;;;;5.69;100.00;100727.48;124755;1099;104269;-77
2024/03/15 10:10:42;;;;;;;65.87;30.97;;;;;;;5.70;100.00;100724.97;124727;1099;102455;-78
2024/03/15 10:13:17;;;;;;;71.53;32.80;;;;;;;5.66;100.00;100719.49;124812;1099;104171;-77
2024/03/15 10:15:48;;;;;;;70.77;32.33;;;;;;;5.64;100.00;100722.00;125122;1099;104198;-77
2024/03/15 10:18:19;;;;;;;62.30;29.33;;;;;;;5.66;100.00;100719.49;125212;1099;104195;-77
2024/03/15 10:20:57;;;;;;;66.03;30.57;;;;;;;5.69;100.00;100720.56;125217;1098;104240;-77
2024/03/15 10:23:28;;;;;;;64.63;30.00;;;;;;;5.69;100.00;100723.16;126448;1099;104627;-78
2024/03/15 10:26:00;;;;;;;60.90;28.77;;;;;;;5.68;100.00;100723.07;125030;1099;104228;-77
2024/03/15 10:28:33;;;;;;;61.87;29.33;;;;;;;5.68;100.00;100720.47;125053;1099;104184;-77
2024/03/15 10:31:06;;;;;;;69.50;31.62;;;;;;;5.67;100.00;100716.98;124939;1099;104373;-77
2024/03/15 10:33:38;;;;;;;;;;;;;;;5.68;100.00;100720.47;125239;1099;104290;-77
2024/03/15 10:36:14;;;;;;;61.03;27.73;;;;;;;5.70;100.00;100717.16;125010;1099;104450;-78
2024/03/15 10:38:46;;;;;;;58.77;28.47;;;;;;;5.63;100.00;100706.30;125108;1099;104297;-77
2024/03/15 10:41:23;;;;;;;60.73;28.27;;;;;;;5.64;100.00;100715.88;125129;1099;104192;-77
2024/03/15 10:43:55;;;;;;;63.40;28.93;;;;;;;5.64;100.00;100708.98;124894;1099;104166;-78
2024/03/15 10:46:27;;;;;;;61.77;29.53;;;;;;;5.66;100.00;100712.56;124509;1099;104208;-77
2024/03/15 10:48:59;;;;;;;62.23;30.10;;;;;;;5.67;100.00;100713.45;124591;1099;103758;-77
2024/03/15 10:51:37;;;;;;;64.67;30.10;;;;;;;5.67;100.00;100713.45;125107;1099;104223;-77
2024/03/15 10:54:15;;;;;;;60.90;27.93;;;;;;;5.68;100.00;100708.34;125218;1099;103165;-78
2024/03/15 10:56:50;;;;;;;60.20;26.57;;;;;;;5.68;100.00;100710.05;125299;1099;105234;-78
2024/03/15 10:59:21;;;;;;;61.33;28.07;;;;;;;5.70;100.00;100709.34;125455;1099;104233;-77
2024/03/15 11:01:53;;;;;;;56.53;26.43;;;;;;;5.73;100.00;100717.34;125413;1099;103291;-77
2024/03/15 11:04:27;;;;;;;53.83;25.90;;;;;;;5.80;100.00;100712.45;125322;1098;102765;-77
2024/03/15 11:07:05;;;;;;;62.00;29.57;;;;;;;5.82;100.00;100714.35;125304;1099;104041;-78
2024/03/15 11:09:41;;;;;;;63.30;27.27;;;;;;;5.86;100.00;100716.34;125192;1099;104345;-79
2024/03/15 11:12:19;;;;;;;61.77;28.77;;;;;;;5.88;100.00;100711.22;126440;1099;101972;-76
2024/03/15 11:14:52;;;;;;;59.13;28.20;;;;;;;5.91;100.00;100719.21;125535;1098;103660;-76
2024/03/15 11:17:23;;;;;;;63.73;29.90;;;;;;;5.91;100.00;100719.21;125890;1098;102452;-76
2024/03/15 11:20:12;;;;;;;56.83;26.30;;;;;;;5.88;100.00;100717.31;125365;1099;104339;-78
2024/03/15 11:22:44;;;;;;;56.35;25.65;;;;;;;5.89;100.00;100713.91;125388;1099;104226;-78
2024/03/15 11:25:20;;;;;;;59.03;27.53;;;;;;;5.88;100.00;100714.71;125887;1099;104303;-78
2024/03/15 11:28:00;;;;;;;61.33;27.93;;;;;;;5.89;100.00;100713.91;125684;1099;102751;-78